Time;durP1;ratioP1;P1;durP2;ratioP2;P2;SDS_P1;SDS_P2;PMS_P1;PMS_P2;Temp;Humidity;BMP_temperature;BMP_pressure;BME280_temperature;BME280_humidity;BME280_pressure;Samples;Min_cycle;Max_cycle;Signal;HPM_P1;HPM_P2
2021/05/31 00:00:06;;;;;;;0.90;0.70;;;;;;;;;;5051606;28;20188;-76
2021/05/31 00:02:32;;;;;;;0.90;0.70;;;;;;;;;;5044452;28;20216;-77
2021/05/31 00:04:58;;;;;;;0.90;0.75;;;;;;;;;;5043082;28;20281;-77
2021/05/31 00:07:24;;;;;;;1.20;0.70;;;;;;;;;;5064760;28;20201;-76
2021/05/31 00:09:54;;;;;;;1.10;1.00;;;;;;;;;;5073823;28;20174;-77
2021/05/31 00:12:20;;;;;;;1.00;0.80;;;;;;;;;;5056673;28;20788;-77
2021/05/31 00:14:47;;;;;;;1.42;0.90;;;;;;;;;;5052737;28;20228;-77
2021/05/31 00:17:14;;;;;;;1.00;0.80;;;;;;;;;;5054071;28;20230;-77
2021/05/31 00:19:40;;;;;;;1.20;0.80;;;;;;;;;;5034832;28;20185;-76
2021/05/31 00:22:06;;;;;;;0.95;0.85;;;;;;;;;;5041543;28;20256;-77
2021/05/31 00:24:32;;;;;;;0.90;0.80;;;;;;;;;;5052730;28;20185;-77
2021/05/31 00:26:58;;;;;;;0.93;0.77;;;;;;;;;;5046674;28;20223;-77
2021/05/31 00:29:24;;;;;;;1.00;0.80;;;;;;;;;;5051008;28;20194;-77
2021/05/31 00:31:55;;;;;;;1.10;1.00;;;;;;;;;;5054377;28;20185;-76
2021/05/31 00:34:21;;;;;;;1.90;1.58;;;;;;;;;;5049832;28;20565;-77
2021/05/31 00:36:47;;;;;;;0.90;0.70;;;;;;;;;;5057063;28;20229;-77
2021/05/31 00:39:13;;;;;;;1.10;1.00;;;;;;;;;;5054897;28;20182;-77
2021/05/31 00:41:43;;;;;;;1.30;1.02;;;;;;;;;;5054385;28;20231;-76
2021/05/31 00:44:09;;;;;;;1.15;1.05;;;;;;;;;;5054452;28;20629;-76
2021/05/31 00:46:35;;;;;;;1.00;0.77;;;;;;;;;;5052489;28;20263;-77
2021/05/31 00:49:02;;;;;;;0.90;0.70;;;;;;;;;;5040454;28;20425;-76
2021/05/31 00:51:28;;;;;;;0.90;0.80;;;;;;;;;;5054304;28;20488;-77
2021/05/31 00:53:55;;;;;;;1.30;1.20;;;;;;;;;;5054103;28;20174;-76
2021/05/31 00:56:21;;;;;;;1.02;0.90;;;;;;;;;;5048180;28;20284;-77
2021/05/31 00:58:47;;;;;;;1.00;0.80;;;;;;;;;;5052521;28;20212;-77
2021/05/31 01:01:15;;;;;;;1.00;0.90;;;;;;;;;;5053644;28;20405;-77
2021/05/31 01:03:41;;;;;;;1.63;1.02;;;;;;;;;;5044119;28;20182;-77
2021/05/31 01:06:08;;;;;;;1.13;1.02;;;;;;;;;;5051764;28;20204;-76
2021/05/31 01:08:46;;;;;;;1.60;1.10;;;;;;;;;;5048335;28;20174;-77
2021/05/31 01:11:14;;;;;;;1.50;1.13;;;;;;;;;;5034734;28;20568;-77
2021/05/31 01:13:45;;;;;;;2.17;1.00;;;;;;;;;;5053534;28;20255;-76
2021/05/31 01:16:27;;;;;;;1.48;1.00;;;;;;;;;;5052102;28;20197;-77
2021/05/31 01:18:54;;;;;;;1.10;0.82;;;;;;;;;;5049086;28;20591;-76
2021/05/31 01:21:20;;;;;;;1.00;0.70;;;;;;;;;;5051241;28;20181;-76
2021/05/31 01:23:48;;;;;;;1.50;1.40;;;;;;;;;;5053084;28;20200;-76
2021/05/31 01:26:16;;;;;;;2.35;1.23;;;;;;;;;;5050418;28;20311;-76
2021/05/31 01:28:55;;;;;;;1.60;1.02;;;;;;;;;;5043837;28;20261;-77
2021/05/31 01:31:23;;;;;;;2.13;1.20;;;;;;;;;;5033058;28;20201;-76
2021/05/31 01:33:50;;;;;;;1.40;1.30;;;;;;;;;;5033218;28;20686;-76
2021/05/31 01:36:17;;;;;;;1.00;0.73;;;;;;;;;;5050770;28;20265;-76
2021/05/31 01:38:44;;;;;;;1.20;1.00;;;;;;;;;;5039655;28;20183;-76
2021/05/31 01:41:11;;;;;;;2.22;1.40;;;;;;;;;;5032639;28;20625;-76
2021/05/31 01:43:38;;;;;;;3.05;1.35;;;;;;;;;;5031303;28;20677;-76
2021/05/31 01:46:05;;;;;;;1.30;1.13;;;;;;;;;;5032425;28;20206;-76
2021/05/31 01:48:31;;;;;;;1.75;0.90;;;;;;;;;;5031247;28;20182;-76
2021/05/31 01:50:58;;;;;;;1.52;1.30;;;;;;;;;;5054860;28;20190;-76
2021/05/31 01:53:24;;;;;;;1.30;0.90;;;;;;;;;;5071353;28;20801;-76
2021/05/31 01:55:51;;;;;;;1.00;0.80;;;;;;;;;;5072257;28;20212;-76
2021/05/31 01:58:18;;;;;;;5.10;1.27;;;;;;;;;;5045354;28;20210;-76
2021/05/31 02:00:44;;;;;;;1.83;1.67;;;;;;;;;;5034001;28;20206;-76
2021/05/31 02:03:10;;;;;;;2.65;1.25;;;;;;;;;;5032911;28;20260;-76
2021/05/31 02:05:36;;;;;;;1.30;1.05;;;;;;;;;;5031943;28;20213;-76
2021/05/31 02:08:03;;;;;;;1.60;1.20;;;;;;;;;;5049021;28;20628;-76
2021/05/31 02:10:29;;;;;;;1.10;0.85;;;;;;;;;;5051970;28;20415;-76
2021/05/31 02:12:56;;;;;;;1.30;0.87;;;;;;;;;;5052184;28;20578;-76
2021/05/31 02:15:41;;;;;;;1.30;0.75;;;;;;;;;;5048200;28;20428;-76
2021/05/31 02:18:16;;;;;;;3.58;1.50;;;;;;;;;;5033668;28;20212;-76
2021/05/31 02:20:44;;;;;;;1.20;1.00;;;;;;;;;;5054998;28;20628;-76
2021/05/31 02:23:11;;;;;;;1.35;1.13;;;;;;;;;;5070841;28;20181;-76
2021/05/31 02:25:38;;;;;;;1.50;1.30;;;;;;;;;;5048645;28;20247;-76
2021/05/31 02:28:05;;;;;;;1.42;0.93;;;;;;;;;;5035368;28;20178;-76
2021/05/31 02:30:31;;;;;;;1.10;0.80;;;;;;;;;;5036128;28;20185;-76
2021/05/31 02:33:01;;;;;;;4.43;1.33;;;;;;;;;;5031454;28;20181;-76
2021/05/31 02:35:28;;;;;;;1.20;1.10;;;;;;;;;;5031829;28;20217;-76
2021/05/31 02:37:55;;;;;;;2.22;2.03;;;;;;;;;;5031807;28;20318;-76
2021/05/31 02:40:21;;;;;;;1.10;0.80;;;;;;;;;;5031895;28;20189;-76
2021/05/31 02:42:47;;;;;;;1.50;1.25;;;;;;;;;;5031624;28;20258;-76
2021/05/31 02:45:14;;;;;;;2.07;1.87;;;;;;;;;;5035885;28;20212;-76
2021/05/31 02:47:40;;;;;;;1.40;1.25;;;;;;;;;;5032858;28;20452;-76
2021/05/31 02:50:06;;;;;;;1.10;0.80;;;;;;;;;;5056832;28;20212;-76
2021/05/31 02:52:32;;;;;;;1.10;0.90;;;;;;;;;;5057524;28;20189;-76
2021/05/31 02:54:58;;;;;;;2.03;1.13;;;;;;;;;;5051620;28;20216;-76
2021/05/31 02:57:24;;;;;;;1.27;1.10;;;;;;;;;;5047227;28;20233;-76
2021/05/31 02:59:53;;;;;;;1.60;1.40;;;;;;;;;;5040687;28;20435;-76
2021/05/31 03:02:19;;;;;;;1.27;1.00;;;;;;;;;;5052384;28;20188;-76
2021/05/31 03:04:45;;;;;;;2.17;1.38;;;;;;;;;;5049681;28;20196;-76
2021/05/31 03:07:11;;;;;;;2.55;2.35;;;;;;;;;;5050753;28;20198;-76
2021/05/31 03:09:37;;;;;;;1.47;0.90;;;;;;;;;;5051310;28;20196;-76
2021/05/31 03:12:04;;;;;;;1.40;1.00;;;;;;;;;;5042197;28;20990;-76
2021/05/31 03:14:30;;;;;;;1.92;1.05;;;;;;;;;;5031469;28;20201;-76
2021/05/31 03:16:56;;;;;;;1.30;1.10;;;;;;;;;;5031418;28;20788;-76
2021/05/31 03:19:22;;;;;;;1.57;1.47;;;;;;;;;;5043332;28;20324;-76
2021/05/31 03:21:48;;;;;;;7.40;1.60;;;;;;;;;;5057529;28;20423;-76
2021/05/31 03:24:14;;;;;;;2.00;1.17;;;;;;;;;;5051401;28;21014;-76
2021/05/31 03:26:40;;;;;;;1.40;1.17;;;;;;;;;;5038177;28;20701;-76
2021/05/31 03:29:06;;;;;;;3.30;2.30;;;;;;;;;;5042771;28;20208;-76
2021/05/31 03:31:32;;;;;;;5.07;1.23;;;;;;;;;;5031281;28;20433;-76
2021/05/31 03:33:58;;;;;;;1.40;1.30;;;;;;;;;;5031328;28;20397;-76
2021/05/31 03:36:24;;;;;;;2.03;1.83;;;;;;;;;;5039849;28;20526;-76
2021/05/31 03:38:50;;;;;;;1.27;1.17;;;;;;;;;;5040811;28;20482;-76
2021/05/31 03:41:16;;;;;;;1.50;1.20;;;;;;;;;;5031718;28;20421;-76
2021/05/31 03:43:42;;;;;;;1.47;1.37;;;;;;;;;;5030961;28;20773;-76
2021/05/31 03:46:07;;;;;;;1.37;1.17;;;;;;;;;;5035037;28;20467;-76
2021/05/31 03:48:34;;;;;;;1.40;1.23;;;;;;;;;;5034188;28;20938;-76
2021/05/31 03:51:10;;;;;;;1.20;1.10;;;;;;;;;;5060377;28;20411;-76
2021/05/31 03:53:37;;;;;;;1.92;1.40;;;;;;;;;;5045133;28;20201;-75
2021/05/31 03:56:03;;;;;;;1.45;1.27;;;;;;;;;;5047422;28;20197;-76
2021/05/31 03:58:29;;;;;;;2.47;1.77;;;;;;;;;;5066607;28;20186;-76
2021/05/31 04:00:55;;;;;;;1.58;1.48;;;;;;;;;;5052971;28;20186;-76
2021/05/31 04:03:21;;;;;;;1.83;1.63;;;;;;;;;;5053055;28;20182;-76
2021/05/31 04:06:24;;;;;;;1.40;1.30;;;;;;;;;;5040701;28;20461;-76
2021/05/31 04:11:36;;;;;;;1.50;1.10;;;;;;;;;;5057762;28;20165;-76
2021/05/31 04:14:09;;;;;;;1.10;1.00;;;;;;;;;;5048847;28;20667;-77
2021/05/31 04:16:37;;;;;;;1.10;0.90;;;;;;;;;;5045960;28;20201;-77
2021/05/31 04:19:04;;;;;;;1.35;1.05;;;;;;;;;;5051325;28;20185;-77
2021/05/31 04:21:30;;;;;;;1.52;0.95;;;;;;;;;;5070618;28;20237;-77
2021/05/31 04:23:56;;;;;;;2.40;1.02;;;;;;;;;;5050246;28;20190;-76
2021/05/31 04:26:22;;;;;;;1.10;0.93;;;;;;;;;;5055120;28;20205;-76
2021/05/31 04:28:48;;;;;;;1.50;1.27;;;;;;;;;;5041843;28;20363;-75
2021/05/31 04:31:14;;;;;;;1.40;1.00;;;;;;;;;;5056487;28;20189;-75
2021/05/31 04:33:41;;;;;;;1.20;0.90;;;;;;;;;;5038889;28;20166;-75
2021/05/31 04:36:07;;;;;;;1.38;0.95;;;;;;;;;;5037271;28;20300;-75
2021/05/31 04:38:33;;;;;;;2.33;1.35;;;;;;;;;;5046016;28;20204;-75
2021/05/31 04:40:59;;;;;;;1.10;0.75;;;;;;;;;;5038324;28;20178;-75
2021/05/31 04:43:25;;;;;;;1.30;1.20;;;;;;;;;;5038582;28;20174;-75
2021/05/31 04:45:51;;;;;;;1.10;0.93;;;;;;;;;;5042342;28;20235;-75
2021/05/31 04:48:17;;;;;;;7.45;1.55;;;;;;;;;;5045401;28;20182;-75
2021/05/31 04:50:43;;;;;;;1.75;1.25;;;;;;;;;;5052208;28;20173;-75
2021/05/31 04:53:09;;;;;;;1.38;1.10;;;;;;;;;;5043957;28;20174;-76
2021/05/31 04:55:36;;;;;;;1.23;0.93;;;;;;;;;;5036455;28;20568;-76
2021/05/31 04:58:03;;;;;;;1.67;1.10;;;;;;;;;;5035750;28;20931;-75
2021/05/31 05:00:29;;;;;;;2.65;1.30;;;;;;;;;;5048022;28;20185;-75
2021/05/31 05:02:55;;;;;;;1.95;1.50;;;;;;;;;;5046573;28;20649;-75
2021/05/31 05:05:21;;;;;;;1.20;0.80;;;;;;;;;;5054502;28;20208;-75
2021/05/31 05:07:47;;;;;;;1.50;0.93;;;;;;;;;;5052730;28;20194;-74
2021/05/31 05:10:14;;;;;;;1.35;1.17;;;;;;;;;;5042549;28;20432;-76
2021/05/31 05:12:42;;;;;;;1.70;1.02;;;;;;;;;;5044830;28;20196;-74
2021/05/31 05:15:08;;;;;;;2.63;1.42;;;;;;;;;;5052861;28;20187;-74
2021/05/31 05:17:34;;;;;;;2.42;1.52;;;;;;;;;;5035156;28;20241;-74
2021/05/31 05:20:00;;;;;;;1.30;1.20;;;;;;;;;;5053869;28;20185;-75
2021/05/31 05:22:26;;;;;;;2.00;1.80;;;;;;;;;;5065256;28;20177;-74
2021/05/31 05:24:52;;;;;;;2.50;1.20;;;;;;;;;;5045474;28;20590;-75
2021/05/31 05:27:18;;;;;;;1.50;1.13;;;;;;;;;;5044082;28;20398;-75
2021/05/31 05:29:44;;;;;;;1.10;0.80;;;;;;;;;;5044721;28;20383;-75
2021/05/31 05:32:12;;;;;;;1.50;1.10;;;;;;;;;;5042724;28;20198;-75
2021/05/31 05:34:37;;;;;;;1.90;1.00;;;;;;;;;;5043569;28;20935;-75
2021/05/31 05:37:10;;;;;;;1.50;1.23;;;;;;;;;;5043130;28;20202;-75
2021/05/31 05:49:43;;;;;;;1.23;0.90;;;;;;;;;;5046718;28;20185;-75
2021/05/31 05:52:11;;;;;;;2.15;1.30;;;;;;;;;;5049796;28;20336;-75
2021/05/31 05:54:37;;;;;;;2.70;1.90;;;;;;;;;;5042377;28;20177;-75
2021/05/31 05:57:03;;;;;;;2.13;1.87;;;;;;;;;;5043270;28;20204;-75
2021/05/31 05:59:29;;;;;;;1.85;1.70;;;;;;;;;;5042204;28;20411;-75
2021/05/31 06:01:55;;;;;;;1.60;1.27;;;;;;;;;;5044049;28;20181;-75
2021/05/31 06:04:21;;;;;;;2.27;1.47;;;;;;;;;;5042192;28;20426;-75
2021/05/31 06:06:47;;;;;;;1.63;1.20;;;;;;;;;;5041004;28;20528;-75
2021/05/31 06:09:15;;;;;;;1.65;1.15;;;;;;;;;;5044034;28;20413;-75
2021/05/31 06:11:41;;;;;;;1.37;1.00;;;;;;;;;;5043719;28;20191;-75
2021/05/31 06:14:09;;;;;;;1.42;1.33;;;;;;;;;;5042003;28;20386;-75
2021/05/31 06:16:35;;;;;;;1.10;0.97;;;;;;;;;;5041982;28;20317;-75
2021/05/31 06:19:01;;;;;;;1.30;1.10;;;;;;;;;;5047996;28;20484;-75
2021/05/31 06:21:27;;;;;;;1.60;1.47;;;;;;;;;;5046018;28;20434;-75
2021/05/31 06:23:54;;;;;;;1.30;0.90;;;;;;;;;;5045840;28;20880;-75
2021/05/31 06:26:22;;;;;;;1.10;0.97;;;;;;;;;;5041038;28;20486;-75
2021/05/31 06:28:48;;;;;;;1.53;1.43;;;;;;;;;;5042083;28;20412;-75
2021/05/31 06:31:14;;;;;;;1.00;0.80;;;;;;;;;;5043642;28;20805;-75
2021/05/31 06:33:40;;;;;;;1.50;1.00;;;;;;;;;;5045854;28;20442;-75
2021/05/31 06:36:08;;;;;;;1.47;1.13;;;;;;;;;;5052738;28;20438;-75
2021/05/31 06:38:34;;;;;;;1.10;1.00;;;;;;;;;;5053407;28;20476;-75
2021/05/31 06:41:03;;;;;;;1.50;1.40;;;;;;;;;;5053246;28;20426;-76
2021/05/31 06:43:29;;;;;;;1.70;1.27;;;;;;;;;;5041295;28;20485;-75
2021/05/31 06:45:55;;;;;;;1.13;1.00;;;;;;;;;;5036759;28;21024;-76
2021/05/31 06:48:22;;;;;;;1.30;1.20;;;;;;;;;;5043298;28;20854;-75
2021/05/31 06:50:48;;;;;;;0.90;0.80;;;;;;;;;;5047413;28;20404;-75
2021/05/31 06:53:14;;;;;;;1.53;1.00;;;;;;;;;;5064656;28;20414;-76
2021/05/31 06:55:41;;;;;;;0.93;0.80;;;;;;;;;;5056659;28;20423;-75
2021/05/31 06:58:07;;;;;;;1.40;0.80;;;;;;;;;;5035074;28;20439;-75
2021/05/31 07:00:33;;;;;;;1.07;0.83;;;;;;;;;;5053126;28;20416;-75
2021/05/31 07:02:59;;;;;;;1.00;0.80;;;;;;;;;;5034491;28;20519;-75
2021/05/31 07:05:25;;;;;;;1.00;0.83;;;;;;;;;;5040500;28;20544;-76
2021/05/31 07:07:52;;;;;;;1.00;0.80;;;;;;;;;;5042637;28;20575;-76
2021/05/31 07:10:22;;;;;;;1.60;1.37;;;;;;;;;;5040988;28;20426;-76
2021/05/31 07:12:48;;;;;;;0.90;0.80;;;;;;;;;;5042620;28;20420;-76
2021/05/31 07:15:14;;;;;;;1.00;0.80;;;;;;;;;;5037419;28;20421;-76
2021/05/31 07:17:41;;;;;;;1.00;0.80;;;;;;;;;;5033062;28;20440;-76
2021/05/31 07:20:09;;;;;;;0.97;0.77;;;;;;;;;;5040245;28;20432;-75
2021/05/31 07:22:35;;;;;;;1.83;1.10;;;;;;;;;;5061756;28;20444;-76
2021/05/31 07:25:01;;;;;;;1.00;0.83;;;;;;;;;;5038423;28;20429;-76
2021/05/31 07:27:27;;;;;;;1.20;1.03;;;;;;;;;;5036904;28;20429;-76
2021/05/31 07:29:53;;;;;;;1.33;0.80;;;;;;;;;;5036970;28;20405;-76
2021/05/31 07:32:19;;;;;;;1.17;0.70;;;;;;;;;;5036963;28;20431;-76
2021/05/31 07:34:45;;;;;;;0.90;0.73;;;;;;;;;;5037340;28;20408;-76
2021/05/31 07:37:11;;;;;;;0.87;0.70;;;;;;;;;;5036516;28;20429;-76
2021/05/31 07:39:37;;;;;;;2.73;2.53;;;;;;;;;;5035901;28;20504;-76
2021/05/31 07:42:04;;;;;;;1.10;0.70;;;;;;;;;;5035626;28;20643;-76
2021/05/31 07:44:30;;;;;;;1.33;1.20;;;;;;;;;;5048628;28;20450;-76
2021/05/31 07:46:56;;;;;;;1.17;1.03;;;;;;;;;;5050304;28;20471;-76
2021/05/31 07:49:22;;;;;;;0.93;0.83;;;;;;;;;;5035565;28;20512;-76
2021/05/31 07:51:50;;;;;;;0.80;0.70;;;;;;;;;;5059970;28;20416;-76
2021/05/31 07:54:16;;;;;;;1.07;0.97;;;;;;;;;;5075631;28;20429;-75
2021/05/31 07:56:42;;;;;;;1.10;0.80;;;;;;;;;;5075412;28;20436;-76
2021/05/31 07:59:09;;;;;;;1.60;1.50;;;;;;;;;;5075357;28;20395;-76
2021/05/31 08:01:35;;;;;;;0.80;0.70;;;;;;;;;;5075440;28;20382;-76
2021/05/31 08:04:03;;;;;;;1.00;0.70;;;;;;;;;;5063565;28;20432;-76
2021/05/31 08:06:30;;;;;;;1.00;0.90;;;;;;;;;;5054963;28;20471;-76
2021/05/31 08:08:56;;;;;;;0.80;0.70;;;;;;;;;;5055089;28;20404;-76
2021/05/31 08:11:22;;;;;;;1.43;1.33;;;;;;;;;;5055666;28;20496;-76
2021/05/31 08:13:48;;;;;;;0.80;0.80;;;;;;;;;;5055295;28;20416;-76
2021/05/31 08:16:17;;;;;;;0.80;0.80;;;;;;;;;;5055584;28;20429;-76
2021/05/31 08:18:43;;;;;;;0.80;0.70;;;;;;;;;;5035107;28;20491;-76
2021/05/31 08:21:09;;;;;;;1.20;0.70;;;;;;;;;;5054843;28;20961;-76
2021/05/31 08:23:35;;;;;;;0.80;0.70;;;;;;;;;;5068083;28;20461;-76
2021/05/31 08:26:01;;;;;;;1.03;0.93;;;;;;;;;;5034568;28;20559;-76
2021/05/31 08:28:27;;;;;;;1.00;0.90;;;;;;;;;;5035504;28;20501;-76
2021/05/31 08:30:53;;;;;;;1.33;1.23;;;;;;;;;;5033524;28;20450;-76
2021/05/31 08:33:19;;;;;;;1.00;1.00;;;;;;;;;;5035521;28;20418;-76
2021/05/31 08:35:46;;;;;;;0.83;0.83;;;;;;;;;;5034658;28;20414;-76
2021/05/31 08:38:13;;;;;;;0.97;0.87;;;;;;;;;;5033868;28;20469;-76
2021/05/31 08:40:39;;;;;;;1.20;1.00;;;;;;;;;;5039487;28;20454;-76
2021/05/31 08:43:05;;;;;;;0.70;0.60;;;;;;;;;;5035956;28;20952;-76
2021/05/31 08:45:32;;;;;;;0.70;0.60;;;;;;;;;;5049663;28;20469;-76
2021/05/31 08:47:59;;;;;;;1.23;1.00;;;;;;;;;;5055376;28;20422;-77
2021/05/31 08:50:29;;;;;;;0.90;0.90;;;;;;;;;;5052628;28;20793;-76
2021/05/31 08:52:56;;;;;;;0.70;0.70;;;;;;;;;;5066878;28;20412;-76
2021/05/31 08:55:24;;;;;;;0.90;0.90;;;;;;;;;;5074349;28;20420;-76
2021/05/31 08:57:50;;;;;;;1.20;1.10;;;;;;;;;;5056035;28;20548;-77
2021/05/31 09:00:18;;;;;;;0.70;0.60;;;;;;;;;;5052774;28;20780;-76
2021/05/31 09:02:43;;;;;;;0.87;0.87;;;;;;;;;;5052582;28;20426;-77
2021/05/31 09:05:10;;;;;;;1.10;1.00;;;;;;;;;;5048066;28;20423;-77
2021/05/31 09:07:36;;;;;;;0.70;0.63;;;;;;;;;;5033866;28;20429;-76
2021/05/31 09:10:04;;;;;;;1.10;1.00;;;;;;;;;;5033520;28;20414;-76
2021/05/31 09:12:36;;;;;;;1.03;1.03;;;;;;;;;;5034762;28;20463;-77
2021/05/31 09:15:04;;;;;;;1.37;1.30;;;;;;;;;;5034381;28;20440;-76
2021/05/31 09:17:31;;;;;;;0.70;0.60;;;;;;;;;;5033318;28;20439;-76
2021/05/31 09:19:57;;;;;;;0.70;0.60;;;;;;;;;;5034746;28;20418;-77
2021/05/31 09:22:24;;;;;;;1.23;1.13;;;;;;;;;;5066961;28;20435;-76
2021/05/31 09:24:59;;;;;;;1.20;1.10;;;;;;;;;;5068928;28;20438;-76
2021/05/31 09:27:27;;;;;;;1.10;0.63;;;;;;;;;;5039755;28;20449;-77
2021/05/31 09:29:57;;;;;;;0.93;0.90;;;;;;;;;;5052659;28;20418;-76
2021/05/31 09:32:23;;;;;;;1.37;1.27;;;;;;;;;;5052799;28;20408;-77
2021/05/31 09:35:04;;;;;;;1.00;0.90;;;;;;;;;;5050123;28;20478;-77
2021/05/31 09:37:30;;;;;;;1.17;0.93;;;;;;;;;;5053588;28;20432;-77
2021/05/31 09:40:07;;;;;;;0.90;0.90;;;;;;;;;;5054108;28;20426;-77
2021/05/31 09:42:33;;;;;;;0.80;0.80;;;;;;;;;;5054051;28;20439;-77
2021/05/31 09:45:07;;;;;;;1.20;1.10;;;;;;;;;;5037804;28;20483;-77
2021/05/31 09:47:34;;;;;;;1.27;0.90;;;;;;;;;;5035453;28;21099;-77
2021/05/31 09:50:01;;;;;;;2.13;2.03;;;;;;;;;;5035369;28;20473;-77
2021/05/31 09:52:27;;;;;;;0.87;0.83;;;;;;;;;;5067432;28;20407;-77
2021/05/31 09:54:54;;;;;;;1.20;1.10;;;;;;;;;;5060475;28;20419;-77
2021/05/31 09:57:27;;;;;;;0.70;0.70;;;;;;;;;;5075060;22;20964;-78
2021/05/31 10:00:04;;;;;;;1.43;1.10;;;;;;;;;;5020603;28;20459;-78
2021/05/31 10:02:41;;;;;;;1.10;1.00;;;;;;;;;;4996155;28;20496;-78
2021/05/31 10:05:32;;;;;;;0.80;0.80;;;;;;;;;;5006538;28;20429;-78
2021/05/31 10:08:17;;;;;;;0.90;0.90;;;;;;;;;;5020678;28;20441;-78
2021/05/31 10:10:44;;;;;;;1.50;1.10;;;;;;;;;;5015526;28;20409;-78
2021/05/31 10:13:10;;;;;;;1.37;0.73;;;;;;;;;;5014950;28;20583;-78
2021/05/31 10:15:40;;;;;;;2.70;1.10;;;;;;;;;;5017837;28;20473;-78
2021/05/31 10:18:06;;;;;;;1.00;0.90;;;;;;;;;;5017066;28;20448;-81
2021/05/31 10:20:32;;;;;;;1.20;1.10;;;;;;;;;;5017343;28;20425;-79
2021/05/31 10:22:58;;;;;;;1.40;1.30;;;;;;;;;;5018132;28;20424;-79
2021/05/31 10:25:26;;;;;;;1.00;1.00;;;;;;;;;;5018964;28;20483;-80
2021/05/31 10:27:55;;;;;;;1.00;0.90;;;;;;;;;;5017837;28;20818;-81
2021/05/31 10:30:21;;;;;;;1.07;0.80;;;;;;;;;;5016174;28;20447;-80
2021/05/31 10:32:52;;;;;;;1.27;1.17;;;;;;;;;;5015880;28;20410;-78
2021/05/31 10:35:22;;;;;;;0.97;0.97;;;;;;;;;;5019852;28;20448;-77
2021/05/31 10:37:55;;;;;;;1.47;1.37;;;;;;;;;;5024933;28;20472;-78
2021/05/31 10:40:22;;;;;;;1.40;1.30;;;;;;;;;;5032739;28;20413;-79
2021/05/31 10:42:49;;;;;;;1.10;1.00;;;;;;;;;;5033551;28;20977;-78
2021/05/31 10:45:15;;;;;;;0.80;0.80;;;;;;;;;;5033405;28;20406;-77
2021/05/31 10:47:41;;;;;;;1.23;1.13;;;;;;;;;;5024465;28;20872;-78
2021/05/31 10:50:14;;;;;;;1.67;1.00;;;;;;;;;;5014656;28;20434;-78
2021/05/31 10:52:49;;;;;;;1.07;0.73;;;;;;;;;;5020448;28;20411;-78
2021/05/31 10:55:16;;;;;;;1.87;1.40;;;;;;;;;;5017088;28;20449;-78
2021/05/31 10:57:42;;;;;;;0.93;0.93;;;;;;;;;;5018415;28;20465;-78
2021/05/31 11:00:08;;;;;;;0.80;0.80;;;;;;;;;;5030428;28;20440;-78
2021/05/31 11:02:34;;;;;;;1.03;0.90;;;;;;;;;;5038475;28;20416;-77
2021/05/31 11:05:10;;;;;;;1.37;1.00;;;;;;;;;;5032468;28;20424;-78
2021/05/31 11:07:36;;;;;;;0.90;0.80;;;;;;;;;;5018664;28;20482;-79
2021/05/31 11:10:13;;;;;;;1.30;1.20;;;;;;;;;;5018372;28;20416;-78
2021/05/31 11:12:39;;;;;;;1.30;1.20;;;;;;;;;;5018690;28;20757;-79
2021/05/31 11:15:09;;;;;;;0.80;0.80;;;;;;;;;;5018495;28;20500;-78
2021/05/31 11:17:46;;;;;;;1.13;0.90;;;;;;;;;;5018033;28;20434;-78
2021/05/31 11:20:13;;;;;;;0.70;0.67;;;;;;;;;;5019645;28;20470;-79
2021/05/31 11:22:39;;;;;;;1.40;1.30;;;;;;;;;;5029491;28;20761;-78
2021/05/31 11:25:08;;;;;;;1.50;1.30;;;;;;;;;;5038637;28;20433;-78
2021/05/31 11:27:42;;;;;;;1.23;1.10;;;;;;;;;;5038263;28;20434;-75
2021/05/31 11:30:12;;;;;;;1.20;1.10;;;;;;;;;;5031783;28;20455;-75
2021/05/31 11:32:38;;;;;;;1.00;0.90;;;;;;;;;;5035294;28;20994;-74
2021/05/31 11:35:06;;;;;;;0.70;0.70;;;;;;;;;;5027189;28;20455;-75
2021/05/31 11:37:33;;;;;;;1.03;0.97;;;;;;;;;;5014751;28;20445;-75
2021/05/31 11:39:59;;;;;;;0.70;0.60;;;;;;;;;;5014997;28;20439;-75
2021/05/31 11:42:25;;;;;;;1.17;1.07;;;;;;;;;;5015199;28;20459;-74
2021/05/31 11:44:55;;;;;;;1.00;1.00;;;;;;;;;;5014792;28;20505;-75
2021/05/31 11:47:23;;;;;;;1.03;1.03;;;;;;;;;;5014975;28;20468;-75
2021/05/31 11:49:49;;;;;;;1.13;1.00;;;;;;;;;;5012722;28;20944;-75
2021/05/31 11:52:15;;;;;;;1.23;1.13;;;;;;;;;;5017463;28;20749;-75
2021/05/31 11:54:42;;;;;;;0.83;0.83;;;;;;;;;;5027782;28;20468;-74
2021/05/31 11:57:09;;;;;;;0.80;0.80;;;;;;;;;;5014668;28;20473;-74
2021/05/31 11:59:37;;;;;;;0.80;0.80;;;;;;;;;;5008121;28;20489;-74
2021/05/31 12:02:07;;;;;;;1.30;1.20;;;;;;;;;;5012421;28;20468;-74
2021/05/31 12:04:33;;;;;;;1.10;1.00;;;;;;;;;;5013791;28;20448;-74
2021/05/31 12:07:25;;;;;;;1.13;1.03;;;;;;;;;;5013895;28;21009;-74
2021/05/31 12:09:52;;;;;;;1.40;1.23;;;;;;;;;;5006985;28;21089;-74
2021/05/31 12:12:20;;;;;;;1.13;1.00;;;;;;;;;;5013737;28;20492;-74
2021/05/31 12:14:46;;;;;;;0.77;0.77;;;;;;;;;;5034342;28;20413;-73
2021/05/31 12:17:12;;;;;;;1.00;0.93;;;;;;;;;;5019995;28;20431;-74
2021/05/31 12:19:38;;;;;;;1.30;1.20;;;;;;;;;;4997896;28;20418;-74
2021/05/31 12:22:05;;;;;;;1.10;1.00;;;;;;;;;;5021506;28;20870;-75
2021/05/31 12:24:32;;;;;;;1.10;1.10;;;;;;;;;;5014127;28;20421;-75
2021/05/31 12:26:59;;;;;;;1.10;1.03;;;;;;;;;;5013561;28;20473;-75
2021/05/31 12:29:38;;;;;;;1.10;1.00;;;;;;;;;;5012745;28;20889;-75
2021/05/31 12:32:11;;;;;;;0.90;0.90;;;;;;;;;;5013535;28;20468;-73
2021/05/31 12:34:38;;;;;;;0.80;0.80;;;;;;;;;;5013215;28;20516;-73
2021/05/31 12:37:08;;;;;;;1.30;1.20;;;;;;;;;;5013709;28;20814;-73
2021/05/31 12:39:34;;;;;;;1.00;1.00;;;;;;;;;;5013905;28;20518;-73
2021/05/31 12:42:01;;;;;;;0.77;0.77;;;;;;;;;;5016580;28;20556;-73
2021/05/31 12:44:28;;;;;;;0.80;0.80;;;;;;;;;;5013915;28;20490;-72
2021/05/31 12:47:03;;;;;;;1.20;1.10;;;;;;;;;;5012765;28;20468;-73
2021/05/31 12:49:29;;;;;;;1.50;1.40;;;;;;;;;;5012021;28;20455;-73
2021/05/31 12:51:57;;;;;;;1.53;1.43;;;;;;;;;;5011255;28;20440;-73
2021/05/31 12:54:23;;;;;;;1.00;0.73;;;;;;;;;;5012558;28;20433;-73
2021/05/31 12:56:51;;;;;;;1.10;1.00;;;;;;;;;;5012545;28;20453;-73
2021/05/31 12:59:23;;;;;;;1.27;1.20;;;;;;;;;;5012280;28;20469;-76
2021/05/31 13:01:49;;;;;;;2.30;1.10;;;;;;;;;;5013885;28;20452;-77
2021/05/31 13:04:23;;;;;;;1.00;1.00;;;;;;;;;;5012729;28;20503;-77
2021/05/31 13:06:49;;;;;;;1.00;0.90;;;;;;;;;;5011960;28;20493;-75
2021/05/31 13:09:23;;;;;;;0.80;0.80;;;;;;;;;;4995367;28;21525;-72
2021/05/31 13:11:49;;;;;;;0.80;0.80;;;;;;;;;;5002046;28;20425;-72
2021/05/31 13:14:19;;;;;;;2.07;1.20;;;;;;;;;;5008198;28;20429;-72
2021/05/31 13:16:59;;;;;;;0.60;0.60;;;;;;;;;;5010220;28;20513;-73
2021/05/31 13:19:25;;;;;;;1.03;0.80;;;;;;;;;;5012179;28;20523;-73
2021/05/31 13:21:59;;;;;;;0.90;0.87;;;;;;;;;;5008981;28;20446;-73
2021/05/31 13:24:27;;;;;;;0.93;0.93;;;;;;;;;;5005819;28;20414;-73
2021/05/31 13:26:53;;;;;;;0.80;0.80;;;;;;;;;;5012448;28;20480;-73
2021/05/31 13:29:23;;;;;;;0.70;0.60;;;;;;;;;;5012725;28;20972;-73
2021/05/31 13:31:50;;;;;;;0.77;0.77;;;;;;;;;;5012281;28;20442;-73
2021/05/31 13:34:16;;;;;;;0.93;0.93;;;;;;;;;;5010840;28;20436;-73
2021/05/31 13:36:42;;;;;;;0.97;0.87;;;;;;;;;;5016720;28;20799;-73
2021/05/31 13:39:11;;;;;;;0.87;0.87;;;;;;;;;;5012364;28;20929;-73
2021/05/31 13:41:39;;;;;;;1.00;1.00;;;;;;;;;;5011955;28;20437;-73
2021/05/31 13:44:34;;;;;;;1.17;1.03;;;;;;;;;;5012971;28;20418;-74
2021/05/31 13:47:00;;;;;;;0.87;0.87;;;;;;;;;;4995059;28;20535;-73
2021/05/31 13:49:26;;;;;;;0.70;0.70;;;;;;;;;;5012457;28;20438;-73
2021/05/31 13:51:53;;;;;;;0.80;0.73;;;;;;;;;;5012047;28;20434;-73
2021/05/31 13:54:22;;;;;;;0.80;0.80;;;;;;;;;;5009700;28;20799;-73
2021/05/31 13:56:48;;;;;;;1.10;1.00;;;;;;;;;;5016197;28;20504;-73
2021/05/31 13:59:14;;;;;;;1.00;0.90;;;;;;;;;;5012107;28;20453;-73
2021/05/31 14:01:41;;;;;;;1.90;1.00;;;;;;;;;;5011758;28;20488;-73
2021/05/31 14:04:07;;;;;;;1.00;1.00;;;;;;;;;;5018913;28;20487;-74
2021/05/31 14:06:33;;;;;;;1.23;0.87;;;;;;;;;;5013754;28;20492;-74
2021/05/31 14:09:00;;;;;;;1.30;1.20;;;;;;;;;;5009379;28;20457;-73
2021/05/31 14:11:27;;;;;;;0.90;0.90;;;;;;;;;;5011002;28;20433;-74
2021/05/31 14:13:53;;;;;;;0.80;0.77;;;;;;;;;;5011572;28;20473;-73
2021/05/31 14:16:19;;;;;;;0.80;0.80;;;;;;;;;;5012311;28;20455;-74
2021/05/31 14:18:45;;;;;;;0.70;0.70;;;;;;;;;;5008774;28;20453;-74
2021/05/31 14:21:11;;;;;;;0.80;0.80;;;;;;;;;;5012133;28;20837;-74
2021/05/31 14:23:37;;;;;;;1.10;1.10;;;;;;;;;;5011184;28;20434;-73
2021/05/31 14:26:04;;;;;;;0.93;0.93;;;;;;;;;;5010949;28;20492;-74
2021/05/31 14:28:30;;;;;;;0.83;0.83;;;;;;;;;;5011239;28;20468;-74
2021/05/31 14:30:56;;;;;;;0.93;0.93;;;;;;;;;;5011619;28;20433;-73
2021/05/31 14:33:22;;;;;;;1.23;1.10;;;;;;;;;;5011191;28;20502;-73
2021/05/31 14:35:48;;;;;;;1.37;1.27;;;;;;;;;;5008875;28;20956;-73
2021/05/31 14:38:14;;;;;;;1.20;1.13;;;;;;;;;;5015068;28;20483;-73
2021/05/31 14:40:40;;;;;;;1.43;1.33;;;;;;;;;;5009099;28;20187;-73
2021/05/31 14:43:06;;;;;;;1.00;0.90;;;;;;;;;;5010790;28;20999;-74
2021/05/31 14:45:33;;;;;;;1.03;1.03;;;;;;;;;;5011725;28;20453;-74
2021/05/31 14:47:59;;;;;;;0.70;0.70;;;;;;;;;;5011996;28;20434;-74
2021/05/31 14:50:26;;;;;;;0.90;0.90;;;;;;;;;;5011558;28;20784;-75
2021/05/31 14:52:52;;;;;;;1.03;1.00;;;;;;;;;;5003941;28;20430;-75
2021/05/31 14:55:18;;;;;;;1.13;1.10;;;;;;;;;;5014748;28;20919;-75
2021/05/31 14:57:45;;;;;;;1.40;1.13;;;;;;;;;;5015021;28;20537;-73